createdAt,value
2023-03-27T00:01:33.100Z,8.52
2023-03-27T00:04:03.788Z,8.50
2023-03-27T00:06:34.911Z,8.54
2023-03-27T00:09:06.476Z,8.49
2023-03-27T00:11:35.062Z,8.39
2023-03-27T00:14:08.424Z,8.41
2023-03-27T00:16:44.764Z,8.47
2023-03-27T00:19:15.149Z,8.36
2023-03-27T00:21:48.979Z,8.32
2023-03-27T00:24:17.534Z,8.27
2023-03-27T00:26:45.379Z,8.18
2023-03-27T00:29:13.637Z,8.17
2023-03-27T00:31:43.582Z,8.19
2023-03-27T00:34:13.687Z,8.20
2023-03-27T00:36:43.968Z,8.28
2023-03-27T00:39:11.892Z,8.31
2023-03-27T00:41:45.687Z,8.27
2023-03-27T00:44:34.744Z,8.28
2023-03-27T00:47:05.776Z,8.28
2023-03-27T00:49:36.849Z,8.21
2023-03-27T00:52:09.058Z,8.26
2023-03-27T00:54:39.476Z,8.24
2023-03-27T00:57:13.209Z,8.31
2023-03-27T00:59:50.317Z,8.36
2023-03-27T01:02:21.081Z,8.38
2023-03-27T01:04:51.013Z,8.40
2023-03-27T01:07:23.026Z,8.39
2023-03-27T01:09:53.964Z,8.30
2023-03-27T01:12:56.974Z,8.23
2023-03-27T01:15:24.809Z,8.16
2023-03-27T01:18:43.084Z,8.17
2023-03-27T01:21:16.783Z,8.13
2023-03-27T01:24:15.251Z,8.18
2023-03-27T01:26:58.404Z,8.20
2023-03-27T01:30:05.909Z,8.26
2023-03-27T01:32:54.265Z,8.23
2023-03-27T01:35:52.769Z,8.15
2023-03-27T01:38:41.494Z,8.09
2023-03-27T01:41:21.420Z,8.06
2023-03-27T01:43:54.402Z,8.03
2023-03-27T01:46:46.316Z,7.92
2023-03-27T01:49:24.953Z,7.93
2023-03-27T01:52:05.104Z,7.98
2023-03-27T01:54:39.960Z,7.86
2023-03-27T01:57:48.761Z,7.76
2023-03-27T02:00:22.786Z,7.57
2023-03-27T02:02:58.313Z,7.40
2023-03-27T02:05:36.064Z,7.36
2023-03-27T02:08:36.149Z,7.21
2023-03-27T02:11:23.799Z,7.05
2023-03-27T02:13:57.746Z,6.93
2023-03-27T02:16:34.865Z,6.87
2023-03-27T02:19:08.537Z,6.74
2023-03-27T02:21:36.220Z,6.60
2023-03-27T02:24:09.579Z,6.54
2023-03-27T02:26:39.203Z,6.52
2023-03-27T02:29:15.618Z,6.46
2023-03-27T02:31:57.865Z,6.39
2023-03-27T02:34:38.489Z,6.50
2023-03-27T02:37:21.635Z,6.55
2023-03-27T02:40:40.245Z,6.47
2023-03-27T02:43:59.662Z,6.38
2023-03-27T02:46:52.375Z,6.29
2023-03-27T02:49:31.734Z,6.16
2023-03-27T02:52:12.870Z,6.05
2023-03-27T02:54:47.131Z,5.88
2023-03-27T02:57:24.942Z,5.84
2023-03-27T03:00:26.396Z,5.81
2023-03-27T03:03:28.277Z,5.66
2023-03-27T03:06:11.644Z,5.63
2023-03-27T03:08:47.231Z,5.64
2023-03-27T03:11:15.966Z,5.58
2023-03-27T03:13:44.437Z,5.58
2023-03-27T03:16:13.532Z,5.58
2023-03-27T03:18:42.076Z,5.48
2023-03-27T03:21:11.232Z,5.42
2023-03-27T03:23:39.800Z,5.46
2023-03-27T03:26:07.867Z,5.46
2023-03-27T03:29:00.661Z,5.45
2023-03-27T03:31:44.794Z,5.20
2023-03-27T03:34:19.013Z,5.16
2023-03-27T03:36:49.747Z,5.16
2023-03-27T03:39:23.288Z,5.09
2023-03-27T03:41:51.308Z,5.18
2023-03-27T03:44:19.784Z,5.20
2023-03-27T03:46:47.885Z,5.00
2023-03-27T03:49:23.226Z,4.92
2023-03-27T03:52:03.370Z,5.00
2023-03-27T03:54:33.232Z,4.98
2023-03-27T03:57:01.431Z,5.03
2023-03-27T03:59:30.395Z,4.98
2023-03-27T04:02:28.785Z,5.03
2023-03-27T04:05:21.416Z,5.05
2023-03-27T04:07:56.414Z,5.07
2023-03-27T04:10:41.611Z,5.07
2023-03-27T04:13:18.923Z,4.94
2023-03-27T04:16:05.015Z,4.90
2023-03-27T04:18:41.379Z,4.83
2023-03-27T04:21:16.416Z,4.91
2023-03-27T04:23:51.566Z,4.90
2023-03-27T04:26:30.344Z,4.94
2023-03-27T04:29:26.307Z,5.07
2023-03-27T04:32:01.144Z,5.04
2023-03-27T04:34:46.814Z,5.00
2023-03-27T04:37:36.758Z,4.89
2023-03-27T04:40:15.382Z,4.88
2023-03-27T04:42:47.190Z,4.89
2023-03-27T04:45:20.793Z,4.86
2023-03-27T04:47:55.053Z,4.84
2023-03-27T04:50:27.006Z,4.81
2023-03-27T04:52:58.858Z,4.67
2023-03-27T04:55:31.058Z,4.63
2023-03-27T04:58:02.640Z,4.61
2023-03-27T05:00:30.618Z,4.61
2023-03-27T05:03:13.048Z,4.66
2023-03-27T05:05:53.250Z,4.61
2023-03-27T05:08:20.112Z,4.63
2023-03-27T05:10:47.178Z,4.53
2023-03-27T05:13:17.457Z,4.50
2023-03-27T05:15:44.936Z,4.49
2023-03-27T05:18:16.188Z,4.54
2023-03-27T05:20:49.831Z,4.49
2023-03-27T05:23:17.748Z,4.50
2023-03-27T05:26:00.138Z,4.56
2023-03-27T05:28:40.048Z,4.57
2023-03-27T05:31:11.066Z,4.52
2023-03-27T05:33:50.443Z,4.50
2023-03-27T05:36:19.180Z,4.50
2023-03-27T05:38:49.618Z,4.44
2023-03-27T05:41:33.057Z,4.47
2023-03-27T05:44:02.592Z,4.50
2023-03-27T05:46:43.394Z,4.60
2023-03-27T05:49:17.223Z,4.67
2023-03-27T05:51:48.361Z,4.59
2023-03-27T05:54:20.323Z,4.57
2023-03-27T05:56:53.025Z,4.62
2023-03-27T05:59:20.360Z,4.71
2023-03-27T06:01:49.657Z,4.62
2023-03-27T06:04:26.238Z,4.58
2023-03-27T06:07:06.300Z,4.68
2023-03-27T06:09:37.722Z,4.76
2023-03-27T06:12:25.267Z,4.74
2023-03-27T06:14:59.857Z,4.86
2023-03-27T06:17:40.586Z,5.02
2023-03-27T06:20:28.640Z,5.13
2023-03-27T06:22:59.752Z,5.16
2023-03-27T06:25:33.540Z,5.21
2023-03-27T06:28:02.380Z,5.31
2023-03-27T06:30:31.794Z,5.51
2023-03-27T06:33:22.383Z,5.80
2023-03-27T06:35:53.972Z,6.12
2023-03-27T06:38:33.223Z,6.41
2023-03-27T06:41:01.593Z,6.59
2023-03-27T06:44:00.932Z,6.70
2023-03-27T06:46:48.156Z,6.76
2023-03-27T06:49:51.057Z,6.81
2023-03-27T06:52:29.498Z,6.63
2023-03-27T06:55:08.895Z,6.35
2023-03-27T06:57:52.451Z,6.97
2023-03-27T07:00:25.975Z,9.23
2023-03-27T07:03:12.018Z,10.95
2023-03-27T07:05:57.531Z,9.44
2023-03-27T07:08:29.794Z,8.04
2023-03-27T07:13:40.232Z,6.74
2023-03-27T07:16:15.244Z,6.38
2023-03-27T07:18:42.615Z,6.20
2023-03-27T07:21:10.394Z,6.17
2023-03-27T07:23:37.644Z,6.22
2023-03-27T07:26:08.062Z,6.22
2023-03-27T07:29:11.347Z,6.26
2023-03-27T07:31:55.328Z,6.30
2023-03-27T07:34:35.217Z,6.29
2023-03-27T07:37:22.793Z,6.27
2023-03-27T07:40:13.852Z,6.39
2023-03-27T07:42:45.886Z,6.50
2023-03-27T07:45:20.513Z,6.50
2023-03-27T07:47:49.871Z,6.60
2023-03-27T07:50:20.842Z,6.56
2023-03-27T07:52:50.030Z,6.63
2023-03-27T07:55:19.148Z,6.81
2023-03-27T07:58:01.808Z,6.77
2023-03-27T08:00:34.158Z,6.84
2023-03-27T08:03:16.756Z,6.84
2023-03-27T08:05:56.645Z,6.87
2023-03-27T08:08:26.754Z,7.04
2023-03-27T08:11:00.313Z,7.22
2023-03-27T08:13:31.568Z,7.18
2023-03-27T08:16:07.958Z,7.22
2023-03-27T08:18:37.294Z,7.36
2023-03-27T08:21:08.636Z,7.46
2023-03-27T08:23:38.136Z,7.73
2023-03-27T08:26:17.289Z,7.74
2023-03-27T08:28:54.360Z,7.78
2023-03-27T08:31:25.762Z,7.91
2023-03-27T08:33:57.684Z,8.40
2023-03-27T08:36:28.131Z,8.96
2023-03-27T08:38:55.843Z,9.12
2023-03-27T08:41:40.942Z,9.20
2023-03-27T08:44:16.231Z,9.19
2023-03-27T08:46:55.473Z,9.24
2023-03-27T08:49:26.739Z,9.14
2023-03-27T08:52:24.276Z,8.74
2023-03-27T08:54:59.442Z,8.74
2023-03-27T08:57:37.719Z,9.04
2023-03-27T09:00:27.228Z,9.23
2023-03-27T09:03:29.088Z,9.27
2023-03-27T09:06:03.879Z,9.62
2023-03-27T09:08:34.895Z,10.19
2023-03-27T09:11:21.238Z,10.62
2023-03-27T09:13:55.783Z,10.64
2023-03-27T09:16:28.292Z,10.34
2023-03-27T09:19:36.512Z,10.35
2023-03-27T09:22:41.215Z,10.96
2023-03-27T09:25:38.098Z,12.05
2023-03-27T09:28:30.712Z,13.77
2023-03-27T09:31:19.024Z,13.83
2023-03-27T09:33:46.993Z,14.04
2023-03-27T09:36:13.781Z,13.79
2023-03-27T09:38:50.631Z,14.52
2023-03-27T09:41:27.118Z,14.56
2023-03-27T09:44:09.392Z,15.58
2023-03-27T09:46:46.675Z,20.23
2023-03-27T09:49:18.634Z,23.55
2023-03-27T09:51:53.943Z,24.82
2023-03-27T09:54:54.745Z,22.30
2023-03-27T09:57:40.624Z,18.37
2023-03-27T10:00:30.914Z,15.38
2023-03-27T10:03:08.577Z,13.02
2023-03-27T10:05:39.617Z,12.06
2023-03-27T10:08:32.536Z,11.92
2023-03-27T10:11:16.879Z,14.47
2023-03-27T10:13:54.798Z,17.45
2023-03-27T10:16:25.825Z,21.50
2023-03-27T10:19:18.395Z,26.44
2023-03-27T10:21:45.926Z,27.09
2023-03-27T10:24:33.526Z,24.28
2023-03-27T10:27:35.307Z,23.83
2023-03-27T10:30:33.722Z,23.93
2023-03-27T10:33:15.860Z,20.30
2023-03-27T10:35:55.119Z,18.66
2023-03-27T10:38:32.958Z,18.22
2023-03-27T10:41:28.711Z,22.20
2023-03-27T10:43:59.101Z,26.78
2023-03-27T10:46:29.004Z,28.16
2023-03-27T10:49:25.670Z,25.66
2023-03-27T10:51:57.479Z,22.21
2023-03-27T10:54:42.905Z,18.89
2023-03-27T10:57:22.887Z,16.96
2023-03-27T11:00:01.435Z,15.42
2023-03-27T11:02:57.786Z,14.34
2023-03-27T11:05:40.193Z,13.82
2023-03-27T11:08:25.869Z,13.73
2023-03-27T11:11:07.676Z,13.56
2023-03-27T11:13:43.484Z,12.74
2023-03-27T11:16:27.486Z,12.39
2023-03-27T11:19:26.502Z,11.95
2023-03-27T11:22:16.909Z,13.12
2023-03-27T11:24:55.579Z,16.13
2023-03-27T11:27:58.379Z,21.53
2023-03-27T11:30:56.205Z,23.93
2023-03-27T11:33:34.525Z,25.24
2023-03-27T11:36:20.978Z,27.81
2023-03-27T11:39:09.456Z,28.62
2023-03-27T11:41:36.552Z,27.61
2023-03-27T11:44:04.181Z,26.03
2023-03-27T11:46:49.547Z,23.09
2023-03-27T11:49:37.928Z,23.49
2023-03-27T11:52:40.523Z,26.40
2023-03-27T11:55:31.354Z,25.88
2023-03-27T11:58:29.010Z,25.82
2023-03-27T12:01:16.582Z,27.28
2023-03-27T12:04:09.978Z,28.17
2023-03-27T12:07:47.944Z,29.61
2023-03-27T12:10:29.401Z,31.17
2023-03-27T12:13:47.774Z,32.23
2023-03-27T12:16:35.762Z,33.08
2023-03-27T12:19:29.968Z,33.20
2023-03-27T12:22:24.563Z,33.28
2023-03-27T12:25:37.759Z,33.56
2023-03-27T12:29:23.631Z,32.71
2023-03-27T12:32:22.285Z,29.85
2023-03-27T12:34:58.973Z,26.27
2023-03-27T12:37:47.885Z,23.42
2023-03-27T12:40:37.893Z,19.91
2023-03-27T12:43:23.394Z,17.28
2023-03-27T12:46:24.374Z,15.49
2023-03-27T12:49:05.860Z,14.37
2023-03-27T12:51:48.340Z,13.91
2023-03-27T12:54:28.693Z,14.50
2023-03-27T12:57:21.253Z,15.54
2023-03-27T12:59:53.619Z,15.88
2023-03-27T13:02:40.995Z,15.71
2023-03-27T13:05:24.108Z,15.37
2023-03-27T13:08:19.022Z,15.03
2023-03-27T13:11:27.207Z,14.79
2023-03-27T13:14:32.974Z,14.36
2023-03-27T13:17:37.228Z,14.12
2023-03-27T13:20:35.159Z,14.01
2023-03-27T13:23:43.559Z,13.97
2023-03-27T13:26:46.232Z,13.91
2023-03-27T13:29:23.344Z,13.95
2023-03-27T13:32:31.083Z,14.18
2023-03-27T13:35:41.378Z,14.97
2023-03-27T13:38:12.373Z,15.45
2023-03-27T13:41:36.147Z,15.42
2023-03-27T13:44:12.489Z,14.40
2023-03-27T13:46:48.075Z,13.05
2023-03-27T13:49:18.293Z,12.29
2023-03-27T13:52:44.868Z,11.47
2023-03-27T13:55:46.556Z,11.51
2023-03-27T13:59:22.321Z,11.74
2023-03-27T14:02:22.572Z,12.02
2023-03-27T14:05:18.764Z,12.00
2023-03-27T14:08:02.195Z,11.77
2023-03-27T14:11:08.215Z,11.64
2023-03-27T14:14:03.394Z,11.86
2023-03-27T14:16:39.505Z,12.35
2023-03-27T14:19:38.233Z,12.70
2023-03-27T14:22:20.345Z,12.77
2023-03-27T14:25:00.977Z,12.70
2023-03-27T14:27:35.348Z,12.85
2023-03-27T14:30:07.597Z,13.17
2023-03-27T14:32:36.652Z,13.44
2023-03-27T14:35:07.353Z,13.88
2023-03-27T14:37:41.987Z,13.93
2023-03-27T14:40:37.984Z,13.71
2023-03-27T14:43:07.402Z,13.63
2023-03-27T14:45:40.278Z,13.63
2023-03-27T14:48:23.834Z,13.65
2023-03-27T14:50:58.200Z,13.60
2023-03-27T14:53:31.547Z,13.63
2023-03-27T14:56:28.755Z,13.91
2023-03-27T14:59:13.220Z,13.93
2023-03-27T15:01:52.254Z,13.96
2023-03-27T15:04:19.603Z,14.02
2023-03-27T15:06:50.184Z,13.79
2023-03-27T15:09:44.230Z,13.29
2023-03-27T15:12:28.333Z,13.02
2023-03-27T15:14:59.485Z,13.00
2023-03-27T15:17:28.587Z,13.01
2023-03-27T15:20:14.659Z,12.91
2023-03-27T15:22:47.435Z,12.95
2023-03-27T15:25:20.467Z,12.94
2023-03-27T15:27:53.171Z,12.85
2023-03-27T15:30:27.324Z,12.91
2023-03-27T15:33:02.161Z,12.89
2023-03-27T15:35:35.946Z,13.05
2023-03-27T15:38:06.994Z,13.25
2023-03-27T15:40:38.160Z,13.42
2023-03-27T15:43:27.533Z,13.65
2023-03-27T15:45:58.812Z,13.68
2023-03-27T15:48:37.104Z,13.58
2023-03-27T15:51:06.428Z,13.43
2023-03-27T15:53:40.873Z,13.29
2023-03-27T15:56:15.990Z,13.01
2023-03-27T15:58:59.530Z,12.58
2023-03-27T16:01:33.823Z,12.31
2023-03-27T16:04:06.713Z,12.09
2023-03-27T16:06:37.695Z,11.91
2023-03-27T16:09:10.159Z,11.68
2023-03-27T16:11:40.093Z,11.57
2023-03-27T16:14:32.544Z,11.60
2023-03-27T16:17:11.774Z,11.65
2023-03-27T16:19:58.527Z,11.63
2023-03-27T16:22:34.489Z,11.61
2023-03-27T16:25:05.910Z,11.54
2023-03-27T16:27:38.585Z,11.55
2023-03-27T16:30:39.564Z,11.44
2023-03-27T16:33:16.819Z,11.23
2023-03-27T16:35:44.317Z,11.13
2023-03-27T16:38:12.388Z,11.08
2023-03-27T16:40:41.549Z,11.13
2023-03-27T16:43:08.661Z,11.16
2023-03-27T16:45:37.529Z,11.22
2023-03-27T16:48:05.367Z,11.28
2023-03-27T16:50:32.488Z,11.29
2023-03-27T16:52:59.445Z,11.20
2023-03-27T16:55:26.360Z,11.04
2023-03-27T16:57:54.269Z,10.95
2023-03-27T17:00:21.859Z,10.86
2023-03-27T17:02:48.735Z,10.82
2023-03-27T17:05:16.236Z,10.77
2023-03-27T17:07:44.699Z,10.74
2023-03-27T17:10:11.507Z,10.60
2023-03-27T17:12:41.198Z,10.52
2023-03-27T17:15:08.521Z,10.64
2023-03-27T17:17:35.715Z,10.75
2023-03-27T17:20:03.902Z,10.76
2023-03-27T17:22:31.957Z,10.73
2023-03-27T17:25:01.226Z,10.65
2023-03-27T17:27:28.352Z,10.60
2023-03-27T17:29:57.900Z,10.56
2023-03-27T17:32:27.988Z,10.53
2023-03-27T17:34:55.345Z,10.24
2023-03-27T17:37:23.973Z,9.99
2023-03-27T17:39:51.181Z,9.83
2023-03-27T17:42:18.177Z,9.76
2023-03-27T17:44:45.328Z,9.44
2023-03-27T17:47:12.609Z,8.93
2023-03-27T17:49:39.818Z,8.56
2023-03-27T17:52:11.187Z,8.40
2023-03-27T17:54:38.492Z,8.33
2023-03-27T17:57:05.957Z,8.20
2023-03-27T17:59:32.824Z,8.19
2023-03-27T18:02:00.393Z,8.12
2023-03-27T18:04:27.759Z,8.05
2023-03-27T18:06:54.619Z,8.06
2023-03-27T18:09:21.593Z,8.15
2023-03-27T18:11:52.044Z,8.26
2023-03-27T18:14:18.859Z,8.45
2023-03-27T18:16:46.287Z,8.62
2023-03-27T18:19:13.531Z,8.52
2023-03-27T18:21:40.284Z,8.45
2023-03-27T18:24:07.450Z,8.56
2023-03-27T18:26:34.327Z,8.56
2023-03-27T18:29:01.204Z,8.53
2023-03-27T18:31:28.093Z,8.54
2023-03-27T18:33:55.075Z,8.34
2023-03-27T18:36:22.122Z,8.23
2023-03-27T18:38:50.071Z,8.26
2023-03-27T18:41:16.914Z,8.26
2023-03-27T18:43:43.584Z,8.28
2023-03-27T18:46:16.449Z,8.13
2023-03-27T18:48:44.268Z,8.09
2023-03-27T18:51:12.069Z,8.07
2023-03-27T18:53:38.901Z,8.06
2023-03-27T18:56:06.224Z,8.00
2023-03-27T18:58:32.980Z,7.99
2023-03-27T19:01:00.005Z,7.83
2023-03-27T19:03:30.318Z,7.73
2023-03-27T19:06:01.225Z,7.77
2023-03-27T19:08:27.960Z,7.66
2023-03-27T19:10:55.954Z,7.64
2023-03-27T19:13:42.960Z,7.56
2023-03-27T19:16:30.720Z,7.53
2023-03-27T19:19:36.277Z,7.43
2023-03-27T19:22:26.219Z,7.57
2023-03-27T19:24:59.547Z,7.46
2023-03-27T19:27:28.224Z,7.39
2023-03-27T19:30:07.435Z,7.27
2023-03-27T19:32:34.249Z,7.28
2023-03-27T19:35:01.931Z,7.30
2023-03-27T19:37:29.706Z,7.35
2023-03-27T19:39:57.002Z,7.34
2023-03-27T19:42:23.857Z,7.30
2023-03-27T19:44:50.566Z,7.31
2023-03-27T19:47:17.623Z,7.27
2023-03-27T19:49:44.417Z,7.28
2023-03-27T19:52:18.646Z,7.39
2023-03-27T19:54:46.012Z,7.41
2023-03-27T19:57:12.720Z,7.42
2023-03-27T19:59:39.555Z,7.39
2023-03-27T20:02:06.772Z,7.42
2023-03-27T20:04:33.430Z,7.45
2023-03-27T20:07:02.135Z,7.51
2023-03-27T20:09:29.058Z,7.51
2023-03-27T20:11:57.045Z,7.58
2023-03-27T20:14:23.900Z,7.67
2023-03-27T20:16:51.096Z,7.79
2023-03-27T20:19:18.361Z,7.77
2023-03-27T20:21:46.735Z,7.76
2023-03-27T20:24:17.301Z,7.83
2023-03-27T20:26:52.376Z,7.86
2023-03-27T20:29:24.445Z,7.86
2023-03-27T20:31:51.350Z,7.84
2023-03-27T20:34:20.019Z,7.80
2023-03-27T20:36:47.428Z,7.88
2023-03-27T20:39:22.733Z,7.81
2023-03-27T20:41:51.316Z,7.77
2023-03-27T20:44:20.588Z,7.55
2023-03-27T20:46:51.102Z,7.47
2023-03-27T20:49:40.052Z,7.38
2023-03-27T20:52:08.595Z,7.36
2023-03-27T20:54:35.922Z,7.28
2023-03-27T20:57:03.268Z,7.19
2023-03-27T20:59:31.432Z,7.10
2023-03-27T21:01:59.352Z,6.96
2023-03-27T21:04:28.377Z,6.88
2023-03-27T21:06:55.863Z,6.83
2023-03-27T21:09:23.680Z,6.89
2023-03-27T21:11:53.522Z,6.88
2023-03-27T21:14:22.783Z,6.89
2023-03-27T21:16:49.849Z,6.98
2023-03-27T21:19:17.200Z,7.02
2023-03-27T21:21:45.486Z,7.07
2023-03-27T21:24:13.285Z,6.83
2023-03-27T21:26:40.559Z,6.71
2023-03-27T21:29:10.718Z,6.62
2023-03-27T21:31:39.158Z,6.62
2023-03-27T21:34:06.363Z,6.62
2023-03-27T21:36:33.479Z,6.56
2023-03-27T21:39:01.060Z,6.39
2023-03-27T21:41:27.854Z,6.38
2023-03-27T21:43:54.554Z,6.36
2023-03-27T21:46:22.027Z,6.36
2023-03-27T21:48:52.416Z,6.34
2023-03-27T21:51:19.724Z,6.30
2023-03-27T21:53:46.520Z,6.40
2023-03-27T21:56:13.498Z,6.35
2023-03-27T21:58:40.295Z,6.40
2023-03-27T22:01:07.444Z,6.38
2023-03-27T22:03:34.270Z,6.34
2023-03-27T22:06:11.637Z,6.43
2023-03-27T22:08:40.424Z,6.50
2023-03-27T22:11:10.417Z,6.52
2023-03-27T22:13:37.978Z,6.36
2023-03-27T22:16:13.765Z,6.32
2023-03-27T22:18:41.347Z,6.23
2023-03-27T22:21:19.344Z,6.20
2023-03-27T22:23:46.506Z,6.28
2023-03-27T22:26:13.280Z,6.24
2023-03-27T22:28:40.041Z,6.33
2023-03-27T22:31:07.603Z,6.22
2023-03-27T22:33:35.481Z,6.33
2023-03-27T22:36:03.090Z,6.29
2023-03-27T22:38:31.835Z,6.24
2023-03-27T22:40:59.698Z,6.22
2023-03-27T22:43:29.075Z,6.29
2023-03-27T22:45:56.004Z,6.24
2023-03-27T22:48:22.785Z,6.30
2023-03-27T22:50:56.846Z,6.33
2023-03-27T22:53:25.404Z,6.21
2023-03-27T22:55:54.270Z,6.26
2023-03-27T22:58:22.352Z,6.27
2023-03-27T23:00:51.139Z,6.32
2023-03-27T23:03:19.496Z,6.40
2023-03-27T23:05:54.326Z,6.36
2023-03-27T23:08:24.302Z,6.40
2023-03-27T23:10:59.273Z,6.41
2023-03-27T23:13:28.727Z,6.38
2023-03-27T23:15:56.148Z,6.38
2023-03-27T23:18:27.312Z,6.43
2023-03-27T23:20:58.879Z,6.49
2023-03-27T23:23:27.877Z,6.50
2023-03-27T23:25:56.272Z,6.48
2023-03-27T23:28:23.905Z,6.34
2023-03-27T23:30:59.747Z,6.30
2023-03-27T23:33:28.423Z,6.25
2023-03-27T23:36:02.952Z,6.22
2023-03-27T23:38:30.419Z,6.19
2023-03-27T23:41:00.130Z,6.19
2023-03-27T23:43:29.911Z,6.18
2023-03-27T23:45:59.507Z,6.18
2023-03-27T23:48:27.528Z,6.12
2023-03-27T23:50:56.190Z,6.04
2023-03-27T23:53:27.926Z,6.08
2023-03-27T23:55:56.536Z,6.05
2023-03-27T23:58:28.810Z,6.06
